< < Back
Terminal Aerodrome Forecast


Current Version              Previous Versions:   1  2  3  4  5  6  7  8  9  

Terminal Aerodrome Forecast

727
FTUS44 KBMX 250500
TAFMGM
TAF
KMGM 250523Z 2506/2606 00000KT P6SM SKC
     FM251500 34006KT P6SM SKC=

Latest METAR

358
SAUS80 KWBC 251300 RRA
MTRMGM
METAR KMGM 251253Z 00000KT 10SM CLR 11/08 A3011 RMK AO2 SLP194
T01060083


USA.gov is the U.S. government's official web portal to all federal, state and local government web resources and services.